Terminal Aerodrome Forecast
Issued by NWS

Home | Current Version | Previous Version | Text Only | Print | Product List | Glossary On
Versions: 1 2 3 4 5 6 7 8 9 10 11 12 13 14 15
000
FTUS43 KFGF 252336
TAFTVF
TAF
KTVF 252336Z 2600/2624 12015KT P6SM BKN020
     FM260600 25010KT P6SM BKN035
     FM261100 23008KT P6SM OVC008
     FM261500 22009KT P6SM OVC015
     FM261800 24012KT P6SM BKN035
     FM262200 25011KT P6SM SCT090
      AMD LTD TO CLD VIS AND WIND=

USA.gov is the U.S. government's official web portal to all federal, state and local government web resources and services.